Terminal Aerodrome Forecast
Issued by NWS Sterling, VA

Current Version | Previous Version | Text Only | Print | Product List | Glossary On
Versions: 1 2 3 4 5 6 7 8 9 10 11 12 13 14 15 16 17 18 19 20 21 22
380
FTUS41 KLWX 202050 AAA
TAFIAD
TAF AMD
KIAD 202050Z 2021/2124 09009KT P6SM BKN028 OVC045
     FM210100 08007KT P6SM OVC025
     FM211400 14009KT P6SM BKN035=

USA.gov is the U.S. government's official web portal to all federal, state and local government web resources and services.